createdAt,value
2019-01-10T00:00:14.865Z,40.65
2019-01-10T00:01:19.527Z,35.98
2019-01-10T00:02:22.822Z,31.80
2019-01-10T00:03:26.116Z,29.72
2019-01-10T00:04:29.418Z,29.42
2019-01-10T00:05:32.811Z,28.67
2019-01-10T00:06:36.502Z,28.80
2019-01-10T00:07:39.955Z,26.93
2019-01-10T00:08:43.240Z,29.92
2019-01-10T00:09:46.887Z,28.42
2019-01-10T00:10:50.542Z,26.37
2019-01-10T00:11:53.836Z,28.10
2019-01-10T00:12:57.190Z,31.05
2019-01-10T00:14:00.477Z,36.03
2019-01-10T00:15:05.155Z,33.38
2019-01-10T00:16:08.484Z,33.05
2019-01-10T00:17:11.766Z,33.45
2019-01-10T00:18:15.126Z,30.48
2019-01-10T00:19:18.418Z,41.63
2019-01-10T00:20:21.697Z,45.60
2019-01-10T00:21:25.100Z,45.83
2019-01-10T00:22:28.467Z,46.50
2019-01-10T00:23:31.748Z,39.55
2019-01-10T00:24:35.038Z,36.77
2019-01-10T00:25:38.334Z,37.15
2019-01-10T00:26:42.084Z,34.98
2019-01-10T00:27:45.436Z,35.85
2019-01-10T00:28:49.027Z,34.85
2019-01-10T00:29:52.355Z,33.23
2019-01-10T00:30:55.648Z,32.35
2019-01-10T00:31:58.933Z,31.80
2019-01-10T00:33:02.225Z,33.85
2019-01-10T00:34:05.512Z,36.17
2019-01-10T00:35:09.865Z,32.03
2019-01-10T00:36:13.155Z,30.90
2019-01-10T00:37:16.465Z,28.42
2019-01-10T00:38:19.793Z,29.90
2019-01-10T00:39:23.143Z,28.05
2019-01-10T00:40:26.441Z,31.17
2019-01-10T00:41:29.726Z,28.95
2019-01-10T00:42:33.087Z,32.20
2019-01-10T00:43:36.510Z,29.23
2019-01-10T00:44:39.798Z,29.32
2019-01-10T00:45:43.091Z,30.65
2019-01-10T00:46:46.372Z,31.45
2019-01-10T00:47:49.730Z,31.07
2019-01-10T00:48:53.141Z,31.65
2019-01-10T00:49:56.421Z,32.90
2019-01-10T00:51:00.066Z,33.08
2019-01-10T00:52:03.493Z,37.08
2019-01-10T00:53:06.780Z,41.40
2019-01-10T00:54:10.491Z,39.03
2019-01-10T00:55:13.861Z,40.25
2019-01-10T00:56:17.444Z,35.45
2019-01-10T00:57:20.731Z,33.08
2019-01-10T00:58:24.025Z,32.45
2019-01-10T00:59:27.343Z,32.93
2019-01-10T01:00:30.617Z,33.55
2019-01-10T01:01:33.904Z,34.10
2019-01-10T01:02:37.582Z,32.63
2019-01-10T01:03:40.907Z,33.02
2019-01-10T01:04:44.228Z,33.95
2019-01-10T01:05:47.579Z,29.57
2019-01-10T01:06:50.860Z,31.70
2019-01-10T01:07:54.146Z,31.50
2019-01-10T01:08:57.878Z,30.35
2019-01-10T01:10:01.155Z,29.67
2019-01-10T01:11:04.446Z,29.55
2019-01-10T01:12:07.733Z,33.02
2019-01-10T01:13:11.076Z,32.50
2019-01-10T01:14:14.468Z,31.45
2019-01-10T01:15:18.731Z,32.48
2019-01-10T01:16:22.016Z,30.55
2019-01-10T01:17:25.299Z,30.68
2019-01-10T01:18:28.588Z,30.88
2019-01-10T01:19:31.878Z,32.17
2019-01-10T01:20:35.268Z,32.80
2019-01-10T01:21:38.568Z,30.88
2019-01-10T01:22:41.849Z,27.58
2019-01-10T01:23:45.507Z,29.02
2019-01-10T01:24:48.788Z,28.42
2019-01-10T01:25:52.095Z,28.35
2019-01-10T01:26:55.396Z,27.82
2019-01-10T01:27:59.089Z,28.45
2019-01-10T01:29:02.410Z,27.15
2019-01-10T01:30:11.726Z,27.22
2019-01-10T01:31:15.045Z,28.25
2019-01-10T01:32:18.327Z,26.68
2019-01-10T01:33:21.610Z,27.85
2019-01-10T01:34:24.940Z,27.58
2019-01-10T01:35:28.621Z,25.32
2019-01-10T01:36:31.947Z,26.42
2019-01-10T01:37:35.264Z,25.85
2019-01-10T01:38:38.589Z,27.45
2019-01-10T01:39:41.876Z,26.93
2019-01-10T01:40:45.162Z,27.32
2019-01-10T01:41:48.559Z,28.30
2019-01-10T01:42:51.837Z,27.93
2019-01-10T01:43:55.185Z,29.70
2019-01-10T01:44:58.852Z,29.55
2019-01-10T01:46:02.138Z,29.35
2019-01-10T01:47:05.526Z,31.50
2019-01-10T01:48:08.869Z,34.30
2019-01-10T01:49:12.322Z,34.08
2019-01-10T01:50:20.956Z,36.83
2019-01-10T01:51:24.367Z,40.15
2019-01-10T01:52:27.681Z,50.75
2019-01-10T01:53:31.031Z,53.02
2019-01-10T01:54:34.436Z,58.55
2019-01-10T01:55:37.691Z,54.40
2019-01-10T01:56:40.971Z,46.70
2019-01-10T01:57:44.299Z,44.50
2019-01-10T01:58:47.731Z,44.73
2019-01-10T01:59:51.015Z,46.10
2019-01-10T02:00:54.307Z,42.85
2019-01-10T02:01:57.592Z,40.12
2019-01-10T02:03:00.912Z,37.23
2019-01-10T02:04:04.250Z,35.63
2019-01-10T02:05:08.718Z,36.25
2019-01-10T02:06:12.014Z,37.00
2019-01-10T02:07:15.734Z,36.68
2019-01-10T02:08:19.125Z,33.80
2019-01-10T02:09:22.420Z,34.45
2019-01-10T02:10:26.747Z,36.28
2019-01-10T02:11:30.100Z,34.58
2019-01-10T02:12:33.393Z,38.65
2019-01-10T02:13:36.807Z,39.05
2019-01-10T02:14:40.098Z,39.53
2019-01-10T02:15:43.459Z,50.43
2019-01-10T02:16:46.740Z,50.45
2019-01-10T02:17:50.107Z,48.80
2019-01-10T02:18:53.757Z,44.40
2019-01-10T02:19:57.045Z,49.33
2019-01-10T02:21:00.413Z,46.18
2019-01-10T02:22:04.016Z,48.98
2019-01-10T02:23:07.413Z,47.40
2019-01-10T02:24:10.703Z,47.65
2019-01-10T02:25:18.422Z,46.20
2019-01-10T02:26:21.827Z,46.98
2019-01-10T02:27:25.124Z,42.88
2019-01-10T02:28:28.996Z,44.15
2019-01-10T02:29:32.365Z,44.63
2019-01-10T02:30:41.768Z,42.08
2019-01-10T02:31:40.818Z,44.23
2019-01-10T02:32:44.106Z,45.00
2019-01-10T02:33:47.712Z,43.10
2019-01-10T02:34:50.991Z,39.35
2019-01-10T02:35:54.274Z,36.75
2019-01-10T02:36:57.560Z,39.18
2019-01-10T02:38:00.883Z,39.70
2019-01-10T02:39:05.805Z,49.50
2019-01-10T02:40:10.076Z,50.28
2019-01-10T02:41:13.341Z,49.60
2019-01-10T02:42:16.958Z,42.35
2019-01-10T02:43:26.294Z,39.90
2019-01-10T02:44:25.341Z,39.38
2019-01-10T02:45:28.633Z,40.45
2019-01-10T02:46:31.923Z,40.30
2019-01-10T02:47:35.227Z,43.15
2019-01-10T02:48:38.573Z,42.30
2019-01-10T02:49:42.228Z,46.98
2019-01-10T02:50:45.531Z,56.23
2019-01-10T02:51:48.918Z,57.78
2019-01-10T02:52:52.228Z,53.52
2019-01-10T02:53:55.948Z,50.23
2019-01-10T02:54:59.233Z,51.92
2019-01-10T02:56:02.594Z,49.10
2019-01-10T02:57:05.872Z,47.93
2019-01-10T02:58:09.203Z,47.98
2019-01-10T02:59:12.484Z,51.30
2019-01-10T03:00:18.785Z,49.67
2019-01-10T03:01:22.141Z,51.20
2019-01-10T03:02:25.429Z,53.45
2019-01-10T03:03:28.734Z,54.13
2019-01-10T03:04:32.061Z,55.90
2019-01-10T03:05:35.383Z,55.12
2019-01-10T03:06:39.213Z,55.28
2019-01-10T03:07:42.507Z,55.80
2019-01-10T03:08:45.808Z,55.50
2019-01-10T03:09:49.104Z,53.33
2019-01-10T03:10:52.387Z,58.02
2019-01-10T03:11:55.677Z,57.20
2019-01-10T03:12:58.981Z,55.40
2019-01-10T03:14:02.407Z,54.77
2019-01-10T03:15:07.040Z,56.83
2019-01-10T03:16:10.333Z,61.53
2019-01-10T03:17:13.629Z,59.83
2019-01-10T03:18:16.922Z,61.15
2019-01-10T03:19:20.320Z,57.73
2019-01-10T03:20:23.745Z,59.00
2019-01-10T03:21:27.076Z,59.18
2019-01-10T03:22:30.373Z,55.28
2019-01-10T03:23:33.701Z,54.27
2019-01-10T03:24:37.358Z,51.33
2019-01-10T03:25:40.737Z,54.35
2019-01-10T03:26:44.123Z,55.85
2019-01-10T03:27:47.984Z,57.20
2019-01-10T03:28:51.282Z,52.50
2019-01-10T03:29:54.613Z,54.73
2019-01-10T03:30:57.918Z,50.92
2019-01-10T03:32:01.272Z,52.23
2019-01-10T03:33:04.559Z,51.02
2019-01-10T03:34:07.846Z,53.42
2019-01-10T03:35:11.622Z,53.08
2019-01-10T03:36:14.920Z,52.13
2019-01-10T03:37:18.208Z,51.37
2019-01-10T03:38:21.517Z,53.08
2019-01-10T03:39:24.798Z,48.05
2019-01-10T03:40:28.508Z,49.27
2019-01-10T03:41:31.796Z,53.42
2019-01-10T03:42:35.108Z,54.67
2019-01-10T03:43:46.868Z,59.00
2019-01-10T03:44:43.418Z,58.00
2019-01-10T03:45:46.718Z,57.78
2019-01-10T03:46:50.001Z,57.03
2019-01-10T03:47:53.289Z,56.88
2019-01-10T03:48:56.648Z,54.23
2019-01-10T03:49:59.935Z,53.55
2019-01-10T03:51:03.265Z,54.27
2019-01-10T03:52:06.645Z,59.05
2019-01-10T03:53:09.934Z,61.40
2019-01-10T03:54:13.307Z,62.83
2019-01-10T03:55:16.664Z,58.13
2019-01-10T03:56:19.996Z,58.25
2019-01-10T03:57:23.288Z,49.60
2019-01-10T03:58:26.669Z,49.53
2019-01-10T03:59:30.039Z,49.50
2019-01-10T04:00:33.330Z,51.25
2019-01-10T04:01:36.631Z,50.88
2019-01-10T04:02:39.933Z,55.05
2019-01-10T04:03:43.229Z,52.88
2019-01-10T04:04:46.934Z,54.33
2019-01-10T04:05:50.699Z,52.78
2019-01-10T04:06:54.004Z,58.10
2019-01-10T04:07:57.289Z,60.08
2019-01-10T04:09:00.595Z,60.05
2019-01-10T04:10:05.119Z,58.68
2019-01-10T04:11:08.482Z,62.33
2019-01-10T04:12:11.820Z,59.35
2019-01-10T04:13:15.109Z,61.83
2019-01-10T04:14:18.408Z,61.42
2019-01-10T04:15:21.859Z,58.58
2019-01-10T04:16:25.147Z,59.03
2019-01-10T04:17:28.470Z,59.55
2019-01-10T04:18:31.753Z,59.70
2019-01-10T04:19:35.045Z,59.88
2019-01-10T04:20:38.338Z,58.40
2019-01-10T04:21:41.633Z,58.45
2019-01-10T04:22:45.418Z,58.02
2019-01-10T04:23:48.705Z,58.48
2019-01-10T04:24:51.991Z,55.63
2019-01-10T04:25:55.301Z,54.65
2019-01-10T04:26:58.592Z,53.65
2019-01-10T04:28:01.907Z,54.25
2019-01-10T04:29:05.199Z,54.90
2019-01-10T04:30:15.091Z,53.45
2019-01-10T04:31:18.387Z,50.35
2019-01-10T04:32:21.675Z,52.50
2019-01-10T04:33:25.010Z,51.02
2019-01-10T04:34:28.298Z,51.77
2019-01-10T04:35:31.581Z,66.70
2019-01-10T04:36:34.885Z,71.72
2019-01-10T04:37:38.168Z,53.78
2019-01-10T04:38:41.939Z,56.37
2019-01-10T04:39:45.230Z,61.23
2019-01-10T04:40:48.590Z,54.13
2019-01-10T04:41:51.876Z,56.15
2019-01-10T04:42:55.159Z,56.25
2019-01-10T04:44:06.939Z,49.42
2019-01-10T04:45:04.922Z,48.78
2019-01-10T04:46:08.206Z,52.53
2019-01-10T04:47:11.568Z,55.35
2019-01-10T04:48:14.869Z,69.50
2019-01-10T04:49:18.198Z,70.95
2019-01-10T04:50:21.498Z,72.82
2019-01-10T04:51:25.095Z,78.57
2019-01-10T04:52:28.421Z,71.17
2019-01-10T04:53:31.717Z,61.18
2019-01-10T04:54:38.408Z,61.80
2019-01-10T04:55:40.055Z,56.80
2019-01-10T04:56:43.350Z,56.37
2019-01-10T04:57:46.701Z,59.50
2019-01-10T04:58:49.991Z,57.27
2019-01-10T04:59:53.322Z,60.73
2019-01-10T05:00:56.617Z,55.05
2019-01-10T05:01:59.906Z,66.60
2019-01-10T05:03:03.209Z,63.42
2019-01-10T05:04:06.591Z,66.45
2019-01-10T05:05:09.921Z,64.45
2019-01-10T05:06:13.213Z,59.63
2019-01-10T05:07:16.505Z,63.75
2019-01-10T05:08:20.295Z,62.33
2019-01-10T05:09:23.666Z,64.50
2019-01-10T05:10:27.378Z,68.02
2019-01-10T05:11:34.231Z,64.00
2019-01-10T05:12:37.545Z,62.53
2019-01-10T05:13:40.833Z,62.75
2019-01-10T05:14:44.126Z,69.42
2019-01-10T05:15:47.531Z,77.32
2019-01-10T05:16:50.894Z,93.80
2019-01-10T05:17:54.176Z,78.40
2019-01-10T05:18:57.839Z,63.92
2019-01-10T05:20:01.150Z,64.77
2019-01-10T05:21:04.490Z,61.63
2019-01-10T05:22:07.835Z,60.98
2019-01-10T05:23:11.119Z,62.62
2019-01-10T05:24:14.404Z,61.55
2019-01-10T05:25:17.715Z,60.90
2019-01-10T05:26:21.109Z,63.08
2019-01-10T05:27:24.520Z,65.52
2019-01-10T05:28:27.977Z,68.00
2019-01-10T05:29:31.325Z,66.95
2019-01-10T05:30:34.721Z,69.17
2019-01-10T05:31:38.294Z,70.52
2019-01-10T05:32:41.841Z,65.62
2019-01-10T05:33:45.206Z,68.22
2019-01-10T05:34:48.564Z,87.12
2019-01-10T05:35:52.219Z,87.80
2019-01-10T05:36:55.583Z,77.03
2019-01-10T05:37:59.071Z,73.55
2019-01-10T05:39:02.512Z,73.92
2019-01-10T05:40:09.308Z,73.05
2019-01-10T05:41:12.684Z,85.35
2019-01-10T05:42:16.126Z,73.55
2019-01-10T05:43:19.591Z,66.85
2019-01-10T05:44:26.642Z,77.12
2019-01-10T05:45:28.187Z,64.27
2019-01-10T05:46:31.481Z,61.37
2019-01-10T05:47:36.943Z,61.98
2019-01-10T05:48:47.279Z,64.15
2019-01-10T05:49:45.971Z,68.07
2019-01-10T05:50:49.260Z,55.40
2019-01-10T05:51:52.802Z,54.23
2019-01-10T05:52:56.104Z,57.98
2019-01-10T05:53:59.498Z,53.55
2019-01-10T05:55:02.900Z,57.10
2019-01-10T05:56:15.065Z,56.73
2019-01-10T05:57:11.510Z,56.45
2019-01-10T05:58:15.008Z,56.25
2019-01-10T05:59:18.467Z,54.42
2019-01-10T06:00:25.989Z,65.75
2019-01-10T06:01:29.386Z,64.25
2019-01-10T06:02:32.818Z,61.28
2019-01-10T06:03:36.186Z,58.05
2019-01-10T06:04:39.641Z,59.55
2019-01-10T06:05:43.153Z,61.18
2019-01-10T06:06:46.516Z,61.95
2019-01-10T06:07:49.943Z,64.40
2019-01-10T06:08:53.378Z,57.13
2019-01-10T06:09:57.020Z,58.30
2019-01-10T06:11:00.456Z,57.78
2019-01-10T06:12:04.003Z,57.27
2019-01-10T06:13:07.320Z,58.87
2019-01-10T06:14:10.754Z,56.00
2019-01-10T06:15:17.662Z,56.33
2019-01-10T06:16:20.941Z,56.20
2019-01-10T06:17:24.391Z,55.17
2019-01-10T06:18:28.133Z,55.88
2019-01-10T06:19:31.983Z,53.52
2019-01-10T06:20:35.519Z,58.68
2019-01-10T06:21:38.994Z,60.92
2019-01-10T06:22:42.435Z,64.07
2019-01-10T06:23:45.931Z,69.87
2019-01-10T06:24:49.283Z,83.15
2019-01-10T06:25:52.760Z,80.85
2019-01-10T06:26:56.252Z,79.72
2019-01-10T06:27:59.856Z,80.03
2019-01-10T06:29:03.327Z,84.13
2019-01-10T06:30:15.782Z,80.45
2019-01-10T06:31:19.246Z,82.95
2019-01-10T06:32:22.669Z,74.75
2019-01-10T06:33:26.096Z,78.25
2019-01-10T06:34:29.376Z,88.97
2019-01-10T06:35:32.738Z,84.20
2019-01-10T06:36:36.122Z,81.57
2019-01-10T06:37:39.514Z,78.42
2019-01-10T06:38:42.834Z,67.25
2019-01-10T06:39:46.195Z,69.67
2019-01-10T06:40:49.550Z,67.80
2019-01-10T06:41:53.199Z,62.50
2019-01-10T06:42:56.558Z,65.30
2019-01-10T06:43:59.993Z,63.28
2019-01-10T06:45:03.423Z,60.58
2019-01-10T06:46:06.779Z,65.08
2019-01-10T06:47:10.321Z,60.20
2019-01-10T06:48:14.010Z,60.17
2019-01-10T06:49:17.503Z,57.35
2019-01-10T06:50:21.065Z,61.23
2019-01-10T06:51:24.930Z,57.45
2019-01-10T06:52:28.399Z,59.45
2019-01-10T06:53:31.754Z,57.78
2019-01-10T06:54:35.090Z,60.25
2019-01-10T06:55:38.441Z,70.47
2019-01-10T06:56:41.872Z,67.03
2019-01-10T06:57:45.327Z,67.32
2019-01-10T06:58:49.061Z,72.72
2019-01-10T06:59:52.563Z,72.12
2019-01-10T07:00:55.987Z,73.78
2019-01-10T07:01:59.433Z,76.07
2019-01-10T07:03:02.967Z,73.07
2019-01-10T07:04:06.331Z,69.87
2019-01-10T07:05:11.164Z,69.62
2019-01-10T07:06:14.604Z,80.87
2019-01-10T07:07:17.900Z,76.72
2019-01-10T07:08:21.232Z,68.57
2019-01-10T07:09:24.602Z,60.40
2019-01-10T07:10:29.061Z,65.78
2019-01-10T07:11:32.649Z,68.57
2019-01-10T07:12:36.010Z,68.37
2019-01-10T07:13:39.349Z,68.83
2019-01-10T07:14:42.636Z,64.90
2019-01-10T07:15:45.926Z,64.90
2019-01-10T07:16:53.694Z,63.95
2019-01-10T07:17:54.285Z,55.70
2019-01-10T07:18:57.704Z,57.93
2019-01-10T07:20:01.069Z,57.17
2019-01-10T07:21:04.468Z,55.23
2019-01-10T07:22:07.735Z,56.08
2019-01-10T07:23:11.032Z,51.70
2019-01-10T07:24:14.355Z,52.65
2019-01-10T07:25:17.680Z,50.40
2019-01-10T07:26:20.967Z,48.05
2019-01-10T07:27:24.263Z,52.73
2019-01-10T07:28:27.631Z,51.58
2019-01-10T07:29:30.973Z,62.65
2019-01-10T07:30:36.161Z,79.55
2019-01-10T07:31:39.299Z,86.53
2019-01-10T07:32:42.600Z,87.35
2019-01-10T07:33:45.895Z,83.87
2019-01-10T07:34:49.240Z,77.78
2019-01-10T07:35:54.266Z,79.97
2019-01-10T07:36:57.624Z,84.15
2019-01-10T07:38:00.931Z,81.95
2019-01-10T07:39:07.025Z,84.42
2019-01-10T07:40:13.385Z,87.30
2019-01-10T07:41:16.679Z,77.10
2019-01-10T07:42:19.974Z,75.40
2019-01-10T07:43:23.839Z,66.77
2019-01-10T07:44:27.232Z,70.40
2019-01-10T07:45:30.568Z,77.35
2019-01-10T07:46:33.935Z,75.97
2019-01-10T07:47:49.763Z,85.97
2019-01-10T07:48:53.126Z,72.00
2019-01-10T07:49:57.652Z,79.42
2019-01-10T07:51:00.991Z,71.10
2019-01-10T07:52:04.283Z,61.85
2019-01-10T07:53:07.574Z,56.83
2019-01-10T07:54:10.871Z,53.90
2019-01-10T07:55:14.581Z,56.58
2019-01-10T07:56:17.898Z,55.55
2019-01-10T07:57:21.193Z,55.85
2019-01-10T07:58:24.474Z,52.88
2019-01-10T07:59:28.238Z,54.20
2019-01-10T08:00:31.535Z,55.35
2019-01-10T08:01:34.948Z,55.33
2019-01-10T08:02:38.237Z,53.70
2019-01-10T08:03:41.588Z,56.85
2019-01-10T08:04:44.916Z,54.45
2019-01-10T08:05:48.521Z,52.78
2019-01-10T08:06:51.855Z,53.83
2019-01-10T08:07:55.191Z,58.13
2019-01-10T08:08:58.507Z,60.35
2019-01-10T08:10:01.798Z,60.55
2019-01-10T08:11:05.150Z,59.27
2019-01-10T08:12:08.479Z,62.30
2019-01-10T08:13:11.770Z,56.60
2019-01-10T08:14:15.058Z,58.17
2019-01-10T08:15:20.591Z,58.20
2019-01-10T08:16:23.877Z,92.85
2019-01-10T08:17:27.193Z,93.40
2019-01-10T08:18:30.729Z,86.42
2019-01-10T08:19:34.125Z,76.77
2019-01-10T08:20:37.414Z,77.58
2019-01-10T08:21:40.716Z,87.80
2019-01-10T08:22:44.049Z,85.85
2019-01-10T08:23:47.721Z,96.78
2019-01-10T08:24:51.454Z,94.32
2019-01-10T08:25:54.746Z,89.72
2019-01-10T08:26:58.037Z,78.22
2019-01-10T08:28:01.352Z,88.17
2019-01-10T08:29:05.128Z,88.42
2019-01-10T08:30:11.701Z,81.63
2019-01-10T08:31:15.047Z,80.10
2019-01-10T08:32:18.352Z,74.55
2019-01-10T08:33:21.645Z,73.62
2019-01-10T08:34:25.013Z,74.80
2019-01-10T08:35:28.380Z,73.15
2019-01-10T08:36:32.550Z,83.17
2019-01-10T08:37:36.143Z,86.02
2019-01-10T08:38:39.474Z,81.70
2019-01-10T08:39:42.767Z,80.50
2019-01-10T08:40:46.055Z,76.42
2019-01-10T08:41:49.423Z,75.55
2019-01-10T08:42:52.844Z,79.45
2019-01-10T08:43:56.200Z,79.12
2019-01-10T08:44:59.500Z,80.10
2019-01-10T08:46:02.769Z,79.35
2019-01-10T08:47:06.083Z,78.33
2019-01-10T08:48:09.361Z,81.15
2019-01-10T08:49:12.696Z,87.02
2019-01-10T08:50:18.798Z,82.70
2019-01-10T08:51:22.453Z,83.27
2019-01-10T08:52:26.689Z,116.53
2019-01-10T08:53:29.973Z,106.65
2019-01-10T08:54:33.304Z,112.72
2019-01-10T08:55:36.668Z,109.75
2019-01-10T08:56:40.037Z,104.72
2019-01-10T08:57:43.332Z,97.00
2019-01-10T08:58:46.630Z,97.80
2019-01-10T08:59:49.957Z,94.15
2019-01-10T09:00:53.341Z,91.87
2019-01-10T09:01:56.628Z,88.22
2019-01-10T09:02:59.932Z,102.12
2019-01-10T09:04:03.295Z,94.37
2019-01-10T09:05:07.046Z,109.95
2019-01-10T09:06:10.334Z,105.43
2019-01-10T09:07:13.652Z,108.25
2019-01-10T09:08:16.918Z,105.12
2019-01-10T09:09:20.234Z,95.50
2019-01-10T09:10:25.280Z,93.00
2019-01-10T09:11:28.641Z,85.50
2019-01-10T09:12:32.490Z,89.85
2019-01-10T09:13:35.855Z,89.15
2019-01-10T09:14:39.141Z,88.82
2019-01-10T09:15:42.448Z,85.67
2019-01-10T09:16:45.740Z,82.78
2019-01-10T09:17:49.045Z,75.80
2019-01-10T09:18:52.332Z,74.62
2019-01-10T09:19:55.618Z,74.37
2019-01-10T09:21:04.158Z,73.52
2019-01-10T09:22:04.105Z,68.25
2019-01-10T09:23:07.389Z,76.95
2019-01-10T09:24:10.671Z,73.85
2019-01-10T09:25:13.958Z,71.05
2019-01-10T09:26:17.286Z,62.53
2019-01-10T09:27:21.417Z,64.92
2019-01-10T09:28:24.714Z,61.58
2019-01-10T09:29:28.027Z,72.35
2019-01-10T09:30:31.319Z,62.00
2019-01-10T09:31:34.641Z,62.95
2019-01-10T09:32:37.930Z,66.05
2019-01-10T09:33:41.289Z,62.08
2019-01-10T09:34:44.573Z,60.60
2019-01-10T09:35:47.860Z,61.25
2019-01-10T09:36:51.199Z,58.65
2019-01-10T09:37:54.754Z,54.08
2019-01-10T09:38:58.040Z,51.80
2019-01-10T09:40:01.342Z,54.98
2019-01-10T09:41:04.615Z,53.98
2019-01-10T09:42:07.947Z,54.08
2019-01-10T09:43:11.597Z,57.53
2019-01-10T09:44:14.879Z,55.03
2019-01-10T09:45:20.218Z,53.33
2019-01-10T09:46:26.676Z,53.70
2019-01-10T09:47:30.039Z,54.15
2019-01-10T09:48:33.409Z,55.17
2019-01-10T09:49:36.773Z,52.58
2019-01-10T09:50:40.057Z,56.15
2019-01-10T09:51:44.388Z,101.60
2019-01-10T09:52:47.851Z,91.22
2019-01-10T09:53:51.256Z,80.47
2019-01-10T09:54:54.550Z,67.90
2019-01-10T09:55:57.848Z,57.38
2019-01-10T09:57:01.228Z,58.60
2019-01-10T09:58:04.953Z,57.40
2019-01-10T09:59:08.244Z,57.10
2019-01-10T10:00:17.835Z,56.77
2019-01-10T10:01:21.328Z,54.90
2019-01-10T10:02:24.713Z,56.95
2019-01-10T10:03:28.034Z,56.58
2019-01-10T10:04:31.334Z,59.18
2019-01-10T10:05:34.627Z,66.47
2019-01-10T10:06:37.914Z,70.67
2019-01-10T10:07:41.211Z,70.97
2019-01-10T10:08:44.948Z,64.90
2019-01-10T10:09:48.237Z,61.65
2019-01-10T10:10:51.518Z,59.45
2019-01-10T10:11:54.804Z,63.42
2019-01-10T10:12:58.159Z,59.83
2019-01-10T10:14:01.480Z,60.60
2019-01-10T10:15:09.361Z,58.48
2019-01-10T10:16:12.178Z,60.30
2019-01-10T10:17:15.536Z,70.57
2019-01-10T10:18:18.898Z,71.65
2019-01-10T10:19:22.230Z,64.05
2019-01-10T10:20:25.573Z,60.38
2019-01-10T10:21:28.860Z,59.00
2019-01-10T10:22:32.151Z,58.98
2019-01-10T10:23:35.770Z,58.75
2019-01-10T10:24:39.098Z,65.15
2019-01-10T10:25:42.460Z,64.87
2019-01-10T10:26:45.766Z,64.15
2019-01-10T10:27:49.190Z,66.40
2019-01-10T10:28:52.604Z,66.55
2019-01-10T10:29:56.002Z,66.42
2019-01-10T10:30:59.298Z,65.00
2019-01-10T10:32:02.649Z,65.00
2019-01-10T10:33:05.938Z,68.10
2019-01-10T10:34:09.241Z,67.37
2019-01-10T10:35:12.643Z,67.78
2019-01-10T10:36:15.946Z,66.82
2019-01-10T10:37:19.300Z,70.30
2019-01-10T10:38:22.584Z,74.12
2019-01-10T10:39:25.983Z,70.95
2019-01-10T10:40:29.347Z,65.15
2019-01-10T10:41:32.642Z,62.23
2019-01-10T10:42:35.926Z,68.70
2019-01-10T10:43:39.230Z,73.80
2019-01-10T10:44:42.577Z,75.08
2019-01-10T10:45:45.998Z,81.50
2019-01-10T10:46:49.286Z,78.30
2019-01-10T10:47:52.641Z,92.05
2019-01-10T10:48:55.925Z,77.42
2019-01-10T10:49:59.217Z,95.10
2019-01-10T10:51:02.601Z,87.60
2019-01-10T10:52:05.889Z,79.67
2019-01-10T10:53:09.770Z,68.70
2019-01-10T10:54:13.035Z,62.05
2019-01-10T10:55:16.344Z,58.85
2019-01-10T10:56:19.666Z,59.45
2019-01-10T10:57:23.020Z,57.35
2019-01-10T10:58:26.317Z,56.80
2019-01-10T10:59:29.637Z,55.95
2019-01-10T11:00:33.172Z,60.58
2019-01-10T11:01:36.519Z,60.43
2019-01-10T11:02:39.862Z,60.63
2019-01-10T11:03:43.147Z,59.33
2019-01-10T11:04:46.429Z,60.98
2019-01-10T11:05:49.779Z,63.65
2019-01-10T11:06:53.112Z,62.30
2019-01-10T11:07:56.404Z,77.27
2019-01-10T11:09:08.825Z,70.10
2019-01-10T11:10:08.199Z,61.30
2019-01-10T11:11:11.491Z,53.10
2019-01-10T11:12:14.886Z,53.40
2019-01-10T11:13:18.319Z,52.53
2019-01-10T11:14:21.615Z,55.65
2019-01-10T11:15:24.977Z,57.75
2019-01-10T11:16:28.340Z,62.48
2019-01-10T11:17:31.660Z,65.60
2019-01-10T11:18:34.940Z,60.38
2019-01-10T11:19:38.305Z,58.98
2019-01-10T11:20:42.053Z,63.45
2019-01-10T11:21:45.357Z,78.67
2019-01-10T11:22:48.923Z,88.95
2019-01-10T11:23:52.219Z,94.92
2019-01-10T11:24:55.514Z,88.78
2019-01-10T11:25:58.797Z,90.97
2019-01-10T11:27:02.161Z,77.25
2019-01-10T11:28:06.066Z,77.35
2019-01-10T11:29:09.426Z,77.42
2019-01-10T11:30:15.533Z,76.95
2019-01-10T11:31:18.820Z,101.33
2019-01-10T11:32:22.107Z,84.67
2019-01-10T11:33:25.528Z,83.67
2019-01-10T11:34:28.813Z,80.38
2019-01-10T11:35:32.110Z,77.37
2019-01-10T11:36:35.453Z,96.90
2019-01-10T11:37:38.743Z,96.30
2019-01-10T11:38:42.146Z,87.85
2019-01-10T11:39:45.518Z,80.72
2019-01-10T11:40:48.795Z,81.05
2019-01-10T11:41:52.084Z,82.27
2019-01-10T11:42:55.378Z,76.57
2019-01-10T11:43:58.711Z,75.37
2019-01-10T11:45:02.024Z,76.15
2019-01-10T11:46:05.427Z,75.22
2019-01-10T11:47:08.724Z,71.92
2019-01-10T11:48:12.012Z,68.10
2019-01-10T11:49:15.499Z,73.20
2019-01-10T11:50:18.795Z,73.47
2019-01-10T11:51:22.433Z,71.85
2019-01-10T11:52:25.722Z,83.65
2019-01-10T11:53:35.465Z,86.92
2019-01-10T11:54:34.169Z,87.10
2019-01-10T11:55:37.458Z,97.37
2019-01-10T11:56:40.821Z,93.97
2019-01-10T11:57:44.499Z,89.67
2019-01-10T11:58:47.780Z,79.67
2019-01-10T11:59:51.100Z,90.05
2019-01-10T12:00:54.482Z,81.63
2019-01-10T12:01:58.103Z,87.47
2019-01-10T12:03:01.386Z,94.83
2019-01-10T12:04:04.690Z,89.07
2019-01-10T12:05:09.135Z,86.28
2019-01-10T12:06:12.514Z,131.45
2019-01-10T12:07:15.804Z,108.25
2019-01-10T12:08:19.102Z,101.87
2019-01-10T12:09:22.398Z,82.25
2019-01-10T12:10:25.994Z,90.28
2019-01-10T12:11:29.297Z,113.32
2019-01-10T12:12:32.666Z,135.63
2019-01-10T12:13:36.007Z,102.45
2019-01-10T12:14:39.296Z,96.67
2019-01-10T12:15:42.623Z,90.30
2019-01-10T12:16:45.985Z,91.17
2019-01-10T12:17:49.348Z,83.60
2019-01-10T12:18:59.158Z,91.42
2019-01-10T12:19:57.823Z,99.15
2019-01-10T12:21:01.145Z,96.95
2019-01-10T12:22:04.447Z,99.87
2019-01-10T12:23:07.814Z,89.92
2019-01-10T12:24:11.107Z,93.78
2019-01-10T12:25:16.343Z,103.12
2019-01-10T12:26:19.765Z,97.60
2019-01-10T12:27:23.105Z,92.90
2019-01-10T12:28:26.703Z,87.53
2019-01-10T12:29:36.161Z,116.93
2019-01-10T12:30:35.267Z,103.10
2019-01-10T12:31:38.627Z,98.25
2019-01-10T12:32:41.925Z,91.97
2019-01-10T12:33:45.219Z,89.62
2019-01-10T12:34:48.801Z,90.30
2019-01-10T12:35:54.503Z,89.92
2019-01-10T12:37:00.518Z,86.17
2019-01-10T12:38:02.897Z,90.65
2019-01-10T12:39:07.454Z,84.72
2019-01-10T12:40:13.062Z,88.75
2019-01-10T12:41:16.346Z,84.47
2019-01-10T12:42:19.977Z,98.27
2019-01-10T12:43:23.272Z,95.45
2019-01-10T12:44:26.625Z,97.72
2019-01-10T12:45:29.907Z,97.20
2019-01-10T12:46:37.690Z,96.60
2019-01-10T12:47:39.178Z,92.70
2019-01-10T12:48:42.847Z,98.97
2019-01-10T12:49:46.255Z,103.40
2019-01-10T12:50:49.618Z,106.15
2019-01-10T12:51:52.928Z,109.40
2019-01-10T12:52:56.189Z,95.75
2019-01-10T12:53:59.494Z,94.45
2019-01-10T12:55:02.944Z,93.58
2019-01-10T12:56:06.234Z,95.12
2019-01-10T12:57:09.837Z,92.72
2019-01-10T12:58:13.204Z,92.42
2019-01-10T12:59:16.559Z,86.87
2019-01-10T13:00:24.275Z,90.67
2019-01-10T13:01:27.553Z,93.82
2019-01-10T13:02:30.838Z,98.50
2019-01-10T13:03:34.131Z,105.30
2019-01-10T13:04:37.486Z,105.78
2019-01-10T13:05:40.858Z,109.45
2019-01-10T13:06:44.248Z,105.05
2019-01-10T13:07:47.553Z,120.02
2019-01-10T13:08:50.883Z,162.03
2019-01-10T13:09:54.177Z,117.60
2019-01-10T13:10:57.484Z,101.15
2019-01-10T13:12:00.772Z,117.65
2019-01-10T13:13:04.131Z,105.40
2019-01-10T13:14:07.483Z,121.00
2019-01-10T13:15:14.077Z,129.42
2019-01-10T13:16:17.385Z,96.50
2019-01-10T13:17:20.672Z,100.80
2019-01-10T13:18:24.043Z,103.32
2019-01-10T13:19:29.858Z,97.85
2019-01-10T13:20:33.146Z,93.87
2019-01-10T13:21:36.439Z,103.75
2019-01-10T13:22:39.725Z,97.10
2019-01-10T13:23:43.411Z,225.62
2019-01-10T13:24:46.732Z,145.53
2019-01-10T13:25:59.358Z,117.33
2019-01-10T13:26:55.671Z,92.47
2019-01-10T13:27:58.970Z,106.95
2019-01-10T13:29:02.261Z,103.10
2019-01-10T13:30:08.844Z,98.27
2019-01-10T13:31:12.136Z,97.92
2019-01-10T13:32:15.425Z,89.00
2019-01-10T13:33:18.723Z,85.90
2019-01-10T13:34:22.032Z,114.28
2019-01-10T13:35:25.411Z,112.45
2019-01-10T13:36:28.682Z,106.25
2019-01-10T13:37:32.045Z,90.92